sensor_id;sensor_type;location;lat;lon;timestamp;pressure;altitude;pressure_sealevel;temperature;humidity
9460;BME280;4768;42.664;23.240;2023-06-22T00:00:02;-9913.34;;;17.58;nan
9460;BME280;4768;42.664;23.240;2023-06-22T00:02:33;-9903.38;;;17.23;nan
9460;BME280;4768;42.664;23.240;2023-06-22T00:05:00;-9910.06;;;17.46;nan
9460;BME280;4768;42.664;23.240;2023-06-22T00:07:27;-9911.06;;;17.50;nan
9460;BME280;4768;42.664;23.240;2023-06-22T00:09:53;-9909.22;;;17.43;nan
9460;BME280;4768;42.664;23.240;2023-06-22T00:12:22;-9908.50;;;17.41;nan
9460;BME280;4768;42.664;23.240;2023-06-22T00:14:48;-9905.06;;;17.29;nan
9460;BME280;4768;42.664;23.240;2023-06-22T00:17:15;-9900.09;;;17.12;nan
9460;BME280;4768;42.664;23.240;2023-06-22T00:19:42;-9897.09;;;17.01;nan
9460;BME280;4768;42.664;23.240;2023-06-22T00:22:09;-9893.53;;;16.89;nan
9460;BME280;4768;42.664;23.240;2023-06-22T00:24:35;-9890.97;;;16.80;nan
9460;BME280;4768;42.664;23.240;2023-06-22T00:27:03;-9893.81;;;16.90;nan
9460;BME280;4768;42.664;23.240;2023-06-22T00:29:32;-9895.38;;;16.95;nan
9460;BME280;4768;42.664;23.240;2023-06-22T00:31:59;-9894.81;;;16.93;nan
9460;BME280;4768;42.664;23.240;2023-06-22T00:34:25;-9894.25;;;16.92;nan
9460;BME280;4768;42.664;23.240;2023-06-22T00:36:52;-9894.25;;;16.92;nan
9460;BME280;4768;42.664;23.240;2023-06-22T00:39:19;-9892.38;;;16.85;nan
9460;BME280;4768;42.664;23.240;2023-06-22T00:41:46;-9888.25;;;16.71;nan
9460;BME280;4768;42.664;23.240;2023-06-22T00:44:12;-9884.25;;;16.57;nan
9460;BME280;4768;42.664;23.240;2023-06-22T00:46:41;-9883.41;;;16.54;nan
9460;BME280;4768;42.664;23.240;2023-06-22T00:49:07;-9882.28;;;16.50;nan
9460;BME280;4768;42.664;23.240;2023-06-22T00:51:34;-9878.13;;;16.36;nan
9460;BME280;4768;42.664;23.240;2023-06-22T00:54:04;-9878.00;;;16.35;nan
9460;BME280;4768;42.664;23.240;2023-06-22T00:56:32;-9878.72;;;16.38;nan
9460;BME280;4768;42.664;23.240;2023-06-22T00:58:59;-9879.28;;;16.40;nan
9460;BME280;4768;42.664;23.240;2023-06-22T01:01:29;-9880.56;;;16.44;nan
9460;BME280;4768;42.664;23.240;2023-06-22T01:03:57;-9882.84;;;16.52;nan
9460;BME280;4768;42.664;23.240;2023-06-22T01:06:28;-9882.56;;;16.51;nan
9460;BME280;4768;42.664;23.240;2023-06-22T01:09:02;-9881.84;;;16.48;nan
9460;BME280;4768;42.664;23.240;2023-06-22T01:11:37;-9878.56;;;16.37;nan
9460;BME280;4768;42.664;23.240;2023-06-22T01:14:14;-9876.16;;;16.29;nan
9460;BME280;4768;42.664;23.240;2023-06-22T01:16:44;-9875.72;;;16.27;nan
9460;BME280;4768;42.664;23.240;2023-06-22T01:19:25;-9875.84;;;16.28;nan
9460;BME280;4768;42.664;23.240;2023-06-22T01:21:56;-9880.28;;;16.43;nan
9460;BME280;4768;42.664;23.240;2023-06-22T01:24:30;-9883.13;;;16.53;nan
9460;BME280;4768;42.664;23.240;2023-06-22T01:27:09;-9884.13;;;16.56;nan
9460;BME280;4768;42.664;23.240;2023-06-22T01:29:41;-9882.13;;;16.49;nan
9460;BME280;4768;42.664;23.240;2023-06-22T01:32:10;-9879.41;;;16.40;nan
9460;BME280;4768;42.664;23.240;2023-06-22T01:34:38;-9881.69;;;16.48;nan
9460;BME280;4768;42.664;23.240;2023-06-22T01:37:06;-9884.25;;;16.57;nan
9460;BME280;4768;42.664;23.240;2023-06-22T01:39:34;-9882.56;;;16.51;nan
9460;BME280;4768;42.664;23.240;2023-06-22T01:42:02;-9880.69;;;16.45;nan
9460;BME280;4768;42.664;23.240;2023-06-22T01:44:30;-9880.00;;;16.42;nan
9460;BME280;4768;42.664;23.240;2023-06-22T01:46:59;-9879.00;;;16.39;nan
9460;BME280;4768;42.664;23.240;2023-06-22T01:49:26;-9879.28;;;16.40;nan
9460;BME280;4768;42.664;23.240;2023-06-22T01:51:53;-9882.13;;;16.49;nan
9460;BME280;4768;42.664;23.240;2023-06-22T01:54:20;-9884.25;;;16.57;nan
9460;BME280;4768;42.664;23.240;2023-06-22T01:59:18;-9884.69;;;16.58;nan
9460;BME280;4768;42.664;23.240;2023-06-22T02:01:50;-9882.28;;;16.50;nan
9460;BME280;4768;42.664;23.240;2023-06-22T02:06:55;-9885.41;;;16.61;nan
9460;BME280;4768;42.664;23.240;2023-06-22T02:09:23;-9885.25;;;16.60;nan
9460;BME280;4768;42.664;23.240;2023-06-22T02:11:52;-9883.41;;;16.54;nan
9460;BME280;4768;42.664;23.240;2023-06-22T02:14:21;-9879.28;;;16.40;nan
9460;BME280;4768;42.664;23.240;2023-06-22T02:16:49;-9873.56;;;16.20;nan
9460;BME280;4768;42.664;23.240;2023-06-22T02:19:16;-9871.72;;;16.13;nan
9460;BME280;4768;42.664;23.240;2023-06-22T02:21:45;-9871.16;;;16.11;nan
9460;BME280;4768;42.664;23.240;2023-06-22T02:24:11;-9877.84;;;16.35;nan
9460;BME280;4768;42.664;23.240;2023-06-22T02:26:38;-9882.41;;;16.50;nan
9460;BME280;4768;42.664;23.240;2023-06-22T02:29:07;-9874.13;;;16.22;nan
9460;BME280;4768;42.664;23.240;2023-06-22T02:34:00;-9879.41;;;16.40;nan
9460;BME280;4768;42.664;23.240;2023-06-22T02:36:27;-9879.56;;;16.41;nan
9460;BME280;4768;42.664;23.240;2023-06-22T02:38:58;-9875.72;;;16.27;nan
9460;BME280;4768;42.664;23.240;2023-06-22T02:41:26;-9872.28;;;16.15;nan
9460;BME280;4768;42.664;23.240;2023-06-22T02:43:53;-9875.56;;;16.27;nan
9460;BME280;4768;42.664;23.240;2023-06-22T02:46:20;-9872.28;;;16.15;nan
9460;BME280;4768;42.664;23.240;2023-06-22T02:48:47;-9872.28;;;16.15;nan
9460;BME280;4768;42.664;23.240;2023-06-22T02:53:41;-9876.00;;;16.28;nan
9460;BME280;4768;42.664;23.240;2023-06-22T02:58:38;-9875.56;;;16.27;nan
9460;BME280;4768;42.664;23.240;2023-06-22T03:01:05;-9873.56;;;16.20;nan
9460;BME280;4768;42.664;23.240;2023-06-22T03:03:33;-9871.44;;;16.12;nan
9460;BME280;4768;42.664;23.240;2023-06-22T03:05:59;-9867.72;;;15.99;nan
9460;BME280;4768;42.664;23.240;2023-06-22T03:08:27;-9870.88;;;16.10;nan
9460;BME280;4768;42.664;23.240;2023-06-22T03:10:54;-9873.44;;;16.19;nan
9460;BME280;4768;42.664;23.240;2023-06-22T03:13:22;-9880.13;;;16.43;nan
9460;BME280;4768;42.664;23.240;2023-06-22T03:15:49;-9880.28;;;16.43;nan
9460;BME280;4768;42.664;23.240;2023-06-22T03:18:16;-9882.56;;;16.51;nan
9460;BME280;4768;42.664;23.240;2023-06-22T03:20:43;-9879.41;;;16.40;nan
9460;BME280;4768;42.664;23.240;2023-06-22T03:23:10;-9882.69;;;16.51;nan
9460;BME280;4768;42.664;23.240;2023-06-22T03:25:36;-9885.41;;;16.61;nan
9460;BME280;4768;42.664;23.240;2023-06-22T03:28:03;-9886.81;;;16.66;nan
9460;BME280;4768;42.664;23.240;2023-06-22T03:30:31;-9889.41;;;16.75;nan
9460;BME280;4768;42.664;23.240;2023-06-22T03:32:58;-9891.97;;;16.84;nan
9460;BME280;4768;42.664;23.240;2023-06-22T03:35:25;-9893.66;;;16.90;nan
9460;BME280;4768;42.664;23.240;2023-06-22T03:37:52;-9895.09;;;16.94;nan
9460;BME280;4768;42.664;23.240;2023-06-22T03:40:19;-9897.22;;;17.02;nan
9460;BME280;4768;42.664;23.240;2023-06-22T03:42:45;-9899.50;;;17.10;nan
9460;BME280;4768;42.664;23.240;2023-06-22T03:45:12;-9898.78;;;17.07;nan
9460;BME280;4768;42.664;23.240;2023-06-22T03:47:40;-9901.50;;;17.17;nan
9460;BME280;4768;42.664;23.240;2023-06-22T03:50:08;-9903.50;;;17.24;nan
9460;BME280;4768;42.664;23.240;2023-06-22T03:52:34;-9905.78;;;17.32;nan
9460;BME280;4768;42.664;23.240;2023-06-22T03:57:28;-9908.50;;;17.41;nan
9460;BME280;4768;42.664;23.240;2023-06-22T03:59:56;-9910.78;;;17.49;nan
9460;BME280;4768;42.664;23.240;2023-06-22T04:02:23;-9909.78;;;17.45;nan
9460;BME280;4768;42.664;23.240;2023-06-22T04:04:51;-9910.06;;;17.46;nan
9460;BME280;4768;42.664;23.240;2023-06-22T04:07:18;-9911.06;;;17.50;nan
9460;BME280;4768;42.664;23.240;2023-06-22T04:09:45;-9912.50;;;17.55;nan
9460;BME280;4768;42.664;23.240;2023-06-22T04:12:12;-9913.91;;;17.60;nan
9460;BME280;4768;42.664;23.240;2023-06-22T04:14:38;-9915.06;;;17.64;nan
9460;BME280;4768;42.664;23.240;2023-06-22T04:17:05;-9910.22;;;17.47;nan
9460;BME280;4768;42.664;23.240;2023-06-22T04:19:32;-9912.34;;;17.54;nan
9460;BME280;4768;42.664;23.240;2023-06-22T04:22:00;-9912.78;;;17.56;nan
9460;BME280;4768;42.664;23.240;2023-06-22T04:24:27;-9913.63;;;17.59;nan
9460;BME280;4768;42.664;23.240;2023-06-22T04:26:53;-9919.19;;;17.78;nan
9460;BME280;4768;42.664;23.240;2023-06-22T04:29:21;-9925.47;;;18.00;nan
9460;BME280;4768;42.664;23.240;2023-06-22T04:31:55;-9933.59;;;18.28;nan
9460;BME280;4768;42.664;23.240;2023-06-22T04:34:23;-9936.75;;;18.39;nan
9460;BME280;4768;42.664;23.240;2023-06-22T04:36:51;-9943.03;;;18.61;nan
9460;BME280;4768;42.664;23.240;2023-06-22T04:39:20;-9942.31;;;18.58;nan
9460;BME280;4768;42.664;23.240;2023-06-22T04:41:47;-9942.88;;;18.60;nan
9460;BME280;4768;42.664;23.240;2023-06-22T04:44:15;-9938.88;;;18.46;nan
9460;BME280;4768;42.664;23.240;2023-06-22T04:46:49;-9934.19;;;18.30;nan
9460;BME280;4768;42.664;23.240;2023-06-22T04:49:19;-9946.16;;;18.72;nan
9460;BME280;4768;42.664;23.240;2023-06-22T04:51:47;-9942.44;;;18.59;nan
9460;BME280;4768;42.664;23.240;2023-06-22T04:54:14;-9942.88;;;18.60;nan
9460;BME280;4768;42.664;23.240;2023-06-22T04:56:42;-9939.88;;;18.50;nan
9460;BME280;4768;42.664;23.240;2023-06-22T04:59:11;-9952.00;;;18.92;nan
9460;BME280;4768;42.664;23.240;2023-06-22T05:01:38;-9959.72;;;19.19;nan
9460;BME280;4768;42.664;23.240;2023-06-22T05:04:05;-9972.84;;;19.64;nan
9460;BME280;4768;42.664;23.240;2023-06-22T05:06:33;-9980.41;;;19.90;nan
9460;BME280;4768;42.664;23.240;2023-06-22T05:09:00;-9985.41;;;20.08;nan
9460;BME280;4768;42.664;23.240;2023-06-22T05:11:28;-9981.28;;;19.93;nan
9460;BME280;4768;42.664;23.240;2023-06-22T05:13:56;-9988.13;;;20.17;nan
9460;BME280;4768;42.664;23.240;2023-06-22T05:16:25;-9992.84;;;20.34;nan
9460;BME280;4768;42.664;23.240;2023-06-22T05:18:52;-9992.13;;;20.31;nan
9460;BME280;4768;42.664;23.240;2023-06-22T05:21:23;-9978.41;;;19.84;nan
9460;BME280;4768;42.664;23.240;2023-06-22T05:23:50;-9978.84;;;19.85;nan
9460;BME280;4768;42.664;23.240;2023-06-22T05:26:17;-9987.13;;;20.14;nan
9460;BME280;4768;42.664;23.240;2023-06-22T05:28:44;-10001.28;;;20.63;nan
9460;BME280;4768;42.664;23.240;2023-06-22T05:31:14;-10015.00;;;21.10;nan
9460;BME280;4768;42.664;23.240;2023-06-22T05:33:42;-10021.41;;;21.33;nan
9460;BME280;4768;42.664;23.240;2023-06-22T05:36:09;-10008.28;;;20.87;nan
9460;BME280;4768;42.664;23.240;2023-06-22T05:38:36;-9991.69;;;20.30;nan
9460;BME280;4768;42.664;23.240;2023-06-22T05:41:03;-9998.69;;;20.54;nan
9460;BME280;4768;42.664;23.240;2023-06-22T05:43:30;-10010.28;;;20.94;nan
9460;BME280;4768;42.664;23.240;2023-06-22T05:45:57;-10014.00;;;21.07;nan
9460;BME280;4768;42.664;23.240;2023-06-22T05:48:25;-10039.16;;;21.94;nan
9460;BME280;4768;42.664;23.240;2023-06-22T05:50:52;-10045.16;;;22.15;nan
9460;BME280;4768;42.664;23.240;2023-06-22T05:53:19;-10065.75;;;22.86;nan
9460;BME280;4768;42.664;23.240;2023-06-22T05:55:46;-10020.41;;;21.29;nan
9460;BME280;4768;42.664;23.240;2023-06-22T05:58:12;-10050.44;;;22.33;nan
9460;BME280;4768;42.664;23.240;2023-06-22T06:03:06;-10055.59;;;22.51;nan
9460;BME280;4768;42.664;23.240;2023-06-22T06:08:03;-10035.84;;;21.83;nan
9460;BME280;4768;42.664;23.240;2023-06-22T06:10:31;-10049.00;;;22.28;nan
9460;BME280;4768;42.664;23.240;2023-06-22T06:12:58;-10047.16;;;22.22;nan
9460;BME280;4768;42.664;23.240;2023-06-22T06:15:27;-10033.56;;;21.75;nan
9460;BME280;4768;42.664;23.240;2023-06-22T06:17:54;-10036.56;;;21.85;nan
9460;BME280;4768;42.664;23.240;2023-06-22T06:20:22;-10034.84;;;21.79;nan
9460;BME280;4768;42.664;23.240;2023-06-22T06:22:50;-10044.16;;;22.11;nan
9460;BME280;4768;42.664;23.240;2023-06-22T06:27:46;-10058.16;;;22.60;nan
9460;BME280;4768;42.664;23.240;2023-06-22T06:30:15;-10065.47;;;22.85;nan
9460;BME280;4768;42.664;23.240;2023-06-22T06:32:43;-10065.03;;;22.83;nan
9460;BME280;4768;42.664;23.240;2023-06-22T06:35:11;-10084.78;;;23.52;nan
9460;BME280;4768;42.664;23.240;2023-06-22T06:37:40;-10087.22;;;23.60;nan
9460;BME280;4768;42.664;23.240;2023-06-22T06:40:09;-10084.06;;;23.49;nan
9460;BME280;4768;42.664;23.240;2023-06-22T06:42:37;-10078.34;;;23.30;nan
9460;BME280;4768;42.664;23.240;2023-06-22T06:45:07;-10081.63;;;23.41;nan
9460;BME280;4768;42.664;23.240;2023-06-22T06:47:34;-10097.09;;;23.94;nan
9460;BME280;4768;42.664;23.240;2023-06-22T06:50:02;-10087.78;;;23.62;nan
9460;BME280;4768;42.664;23.240;2023-06-22T06:52:28;-10092.22;;;23.78;nan
9460;BME280;4768;42.664;23.240;2023-06-22T06:57:23;-10091.06;;;23.74;nan
9460;BME280;4768;42.664;23.240;2023-06-22T06:59:51;-10109.25;;;24.36;nan
9460;BME280;4768;42.664;23.240;2023-06-22T07:02:18;-10095.22;;;23.88;nan
9460;BME280;4768;42.664;23.240;2023-06-22T07:04:46;-10104.69;;;24.21;nan
9460;BME280;4768;42.664;23.240;2023-06-22T07:07:12;-10114.13;;;24.53;nan
9460;BME280;4768;42.664;23.240;2023-06-22T07:09:39;-10135.75;;;25.28;nan
9460;BME280;4768;42.664;23.240;2023-06-22T07:12:06;-4189.72;;;25.43;nan
9460;BME280;4768;42.664;23.240;2023-06-22T07:14:35;-10133.16;;;25.19;nan
9460;BME280;4768;42.664;23.240;2023-06-22T07:17:02;-10118.94;;;24.77;nan
9460;BME280;4768;42.664;23.240;2023-06-22T07:19:28;-2781.59;;;25.03;nan
9460;BME280;4768;42.664;23.240;2023-06-22T07:21:56;-2427.13;;;24.78;nan
9460;BME280;4768;42.664;23.240;2023-06-22T07:24:24;-3468.22;;;24.29;nan
9460;BME280;4768;42.664;23.240;2023-06-22T07:26:51;1075.81;;;24.72;nan
9460;BME280;4768;42.664;23.240;2023-06-22T07:29:18;15124.38;;;24.99;nan
9460;BME280;4768;42.664;23.240;2023-06-22T07:31:48;11954.25;;;24.47;nan
9460;BME280;4768;42.664;23.240;2023-06-22T07:36:42;28.06;;;24.46;nan
9460;BME280;4768;42.664;23.240;2023-06-22T07:39:09;-4520.19;;;24.45;nan
9460;BME280;4768;42.664;23.240;2023-06-22T07:41:37;-6274.13;;;24.72;nan
9460;BME280;4768;42.664;23.240;2023-06-22T07:44:05;-5929.13;;;24.93;nan
9460;BME280;4768;42.664;23.240;2023-06-22T07:46:32;6335.00;;;25.05;nan
9460;BME280;4768;42.664;23.240;2023-06-22T07:49:00;10553.00;;;25.46;nan
9460;BME280;4768;42.664;23.240;2023-06-22T07:51:27;-680.16;;;25.04;nan
9460;BME280;4768;42.664;23.240;2023-06-22T07:53:53;-6274.81;;;24.75;nan
9460;BME280;4768;42.664;23.240;2023-06-22T07:56:20;-5574.22;;;24.69;nan
9460;BME280;4768;42.664;23.240;2023-06-22T08:01:14;-10053.59;;;22.44;nan
9460;BME280;4768;42.664;23.240;2023-06-22T08:03:42;-10107.97;;;24.32;nan
9460;BME280;4768;42.664;23.240;2023-06-22T08:06:10;-10092.94;;;23.80;nan
9460;BME280;4768;42.664;23.240;2023-06-22T08:08:37;-10097.94;;;23.97;nan
9460;BME280;4768;42.664;23.240;2023-06-22T08:11:04;-10114.69;;;24.55;nan
9460;BME280;4768;42.664;23.240;2023-06-22T08:13:31;-1720.06;;;24.33;nan
9460;BME280;4768;42.664;23.240;2023-06-22T08:15:57;-10097.53;;;23.96;nan
9460;BME280;4768;42.664;23.240;2023-06-22T08:18:24;-10104.81;;;24.21;nan
9460;BME280;4768;42.664;23.240;2023-06-22T08:20:51;-10102.97;;;24.15;nan
9460;BME280;4768;42.664;23.240;2023-06-22T08:23:19;-8714.38;;;24.49;nan
9460;BME280;4768;42.664;23.240;2023-06-22T08:25:46;-7668.66;;;24.58;nan
9460;BME280;4768;42.664;23.240;2023-06-22T08:28:13;-5938.38;;;25.34;nan
9460;BME280;4768;42.664;23.240;2023-06-22T08:30:40;1068.69;;;25.36;nan
9460;BME280;4768;42.664;23.240;2023-06-22T08:33:07;-4186.72;;;25.28;nan
9460;BME280;4768;42.664;23.240;2023-06-22T08:35:33;14076.59;;;25.82;nan
9460;BME280;4768;42.664;23.240;2023-06-22T08:38:00;16901.28;;;26.13;nan
9460;BME280;4768;42.664;23.240;2023-06-22T08:40:28;39215.06;;;26.29;nan
9460;BME280;4768;42.664;23.240;2023-06-22T08:42:56;65592.91;;;26.08;nan
9460;BME280;4768;42.664;23.240;2023-06-22T08:45:22;70631.50;;;26.31;nan
9460;BME280;4768;42.664;23.240;2023-06-22T08:47:49;91484.50;;;26.22;nan
9460;BME280;4768;42.664;23.240;2023-06-22T08:50:16;96473.78;;;25.77;nan
9460;BME280;4768;42.664;23.240;2023-06-22T08:52:43;97605.94;;;26.10;nan
9460;BME280;4768;42.664;23.240;2023-06-22T08:55:11;156759.09;;;26.60;nan
9460;BME280;4768;42.664;23.240;2023-06-22T08:57:39;174034.63;;;26.43;nan
9460;BME280;4768;42.664;23.240;2023-06-22T09:00:07;174073.66;;;26.57;nan
9460;BME280;4768;42.664;23.240;2023-06-22T09:02:46;174206.91;;;27.06;nan
9460;BME280;4768;42.664;23.240;2023-06-22T09:05:14;174118.06;;;26.74;nan
9460;BME280;4768;42.664;23.240;2023-06-22T09:07:41;173902.75;;;25.94;nan
9460;BME280;4768;42.664;23.240;2023-06-22T09:10:08;173935.09;;;26.06;nan
9460;BME280;4768;42.664;23.240;2023-06-22T09:12:35;173939.13;;;26.08;nan
9460;BME280;4768;42.664;23.240;2023-06-22T09:15:05;173838.22;;;25.71;nan
9460;BME280;4768;42.664;23.240;2023-06-22T09:17:33;173849.00;;;25.75;nan
9460;BME280;4768;42.664;23.240;2023-06-22T09:20:00;173855.75;;;25.77;nan
9460;BME280;4768;42.664;23.240;2023-06-22T09:22:28;173929.69;;;26.04;nan
9460;BME280;4768;42.664;23.240;2023-06-22T09:24:55;174041.38;;;26.45;nan
9460;BME280;4768;42.664;23.240;2023-06-22T09:27:22;174153.03;;;26.86;nan
9460;BME280;4768;42.664;23.240;2023-06-22T09:29:49;174188.09;;;26.99;nan
9460;BME280;4768;42.664;23.240;2023-06-22T09:32:34;174157.09;;;26.88;nan
9460;BME280;4768;42.664;23.240;2023-06-22T09:35:03;174058.84;;;26.52;nan
9460;BME280;4768;42.664;23.240;2023-06-22T09:37:32;174180.03;;;26.96;nan
9460;BME280;4768;42.664;23.240;2023-06-22T09:39:58;174099.25;;;26.67;nan
9460;BME280;4768;42.664;23.240;2023-06-22T09:42:25;174003.72;;;26.31;nan
9460;BME280;4768;42.664;23.240;2023-06-22T09:44:52;174049.44;;;26.48;nan
9460;BME280;4768;42.664;23.240;2023-06-22T09:47:19;174130.16;;;26.78;nan
9460;BME280;4768;42.664;23.240;2023-06-22T09:49:47;174231.13;;;27.15;nan
9460;BME280;4768;42.664;23.240;2023-06-22T09:52:13;174224.41;;;27.13;nan
9460;BME280;4768;42.664;23.240;2023-06-22T09:54:40;174263.47;;;27.27;nan
9460;BME280;4768;42.664;23.240;2023-06-22T09:57:07;174227.06;;;27.14;nan
9460;BME280;4768;42.664;23.240;2023-06-22T09:59:34;174248.66;;;27.22;nan
9460;BME280;4768;42.664;23.240;2023-06-22T10:02:01;174254.00;;;27.24;nan
9460;BME280;4768;42.664;23.240;2023-06-22T10:04:27;174173.28;;;26.94;nan
9460;BME280;4768;42.664;23.240;2023-06-22T10:06:56;174056.19;;;26.51;nan
9460;BME280;4768;42.664;23.240;2023-06-22T10:09:22;174161.16;;;26.89;nan
9460;BME280;4768;42.664;23.240;2023-06-22T10:11:49;174263.47;;;27.27;nan
9460;BME280;4768;42.664;23.240;2023-06-22T10:14:16;174266.13;;;27.28;nan
9460;BME280;4768;42.664;23.240;2023-06-22T10:16:43;174294.38;;;27.38;nan
9460;BME280;4768;42.664;23.240;2023-06-22T10:19:09;174228.47;;;27.14;nan
9460;BME280;4768;42.664;23.240;2023-06-22T10:21:36;174205.56;;;27.06;nan
9460;BME280;4768;42.664;23.240;2023-06-22T10:24:05;174329.44;;;27.51;nan
9460;BME280;4768;42.664;23.240;2023-06-22T10:26:32;174348.28;;;27.58;nan
9460;BME280;4768;42.664;23.240;2023-06-22T10:28:59;174280.94;;;27.33;nan
9460;BME280;4768;42.664;23.240;2023-06-22T10:31:26;174420.97;;;27.85;nan
9460;BME280;4768;42.664;23.240;2023-06-22T10:33:53;174314.56;;;27.46;nan
9460;BME280;4768;42.664;23.240;2023-06-22T10:36:20;174248.66;;;27.22;nan
9460;BME280;4768;42.664;23.240;2023-06-22T10:38:48;174311.91;;;27.45;nan
9460;BME280;4768;42.664;23.240;2023-06-22T10:41:16;174260.75;;;27.26;nan
9460;BME280;4768;42.664;23.240;2023-06-22T10:43:43;174295.75;;;27.39;nan
9460;BME280;4768;42.664;23.240;2023-06-22T10:46:09;174280.94;;;27.33;nan
9460;BME280;4768;42.664;23.240;2023-06-22T10:48:36;174274.19;;;27.31;nan
9460;BME280;4768;42.664;23.240;2023-06-22T10:51:03;174158.41;;;26.88;nan
9460;BME280;4768;42.664;23.240;2023-06-22T10:53:30;173905.47;;;25.95;nan
9460;BME280;4768;42.664;23.240;2023-06-22T10:55:56;174349.63;;;27.59;nan
9460;BME280;4768;42.664;23.240;2023-06-22T10:58:25;174361.75;;;27.63;nan
9460;BME280;4768;42.664;23.240;2023-06-22T11:00:52;174387.28;;;27.73;nan
9460;BME280;4768;42.664;23.240;2023-06-22T11:03:18;174437.13;;;27.91;nan
9460;BME280;4768;42.664;23.240;2023-06-22T11:05:45;174443.88;;;27.93;nan
9460;BME280;4768;42.664;23.240;2023-06-22T11:08:13;174377.88;;;27.69;nan
9460;BME280;4768;42.664;23.240;2023-06-22T11:10:40;174447.91;;;27.95;nan
9460;BME280;4768;42.664;23.240;2023-06-22T11:13:06;174519.28;;;28.21;nan
9460;BME280;4768;42.664;23.240;2023-06-22T11:15:36;174521.97;;;28.22;nan
9460;BME280;4768;42.664;23.240;2023-06-22T11:18:03;174538.13;;;28.28;nan
9460;BME280;4768;42.664;23.240;2023-06-22T11:20:33;174570.44;;;28.40;nan
9460;BME280;4768;42.664;23.240;2023-06-22T11:23:04;174385.97;;;27.72;nan
9460;BME280;4768;42.664;23.240;2023-06-22T11:25:31;174505.81;;;28.16;nan
9460;BME280;4768;42.664;23.240;2023-06-22T11:28:01;174594.69;;;28.49;nan
9460;BME280;4768;42.664;23.240;2023-06-22T11:30:27;174574.50;;;28.41;nan
9460;BME280;4768;42.664;23.240;2023-06-22T11:35:22;174438.44;;;27.91;nan
9460;BME280;4768;42.664;23.240;2023-06-22T11:37:49;174505.81;;;28.16;nan
9460;BME280;4768;42.664;23.240;2023-06-22T11:40:16;174520.66;;;28.22;nan
9460;BME280;4768;42.664;23.240;2023-06-22T11:42:43;174598.72;;;28.50;nan
9460;BME280;4768;42.664;23.240;2023-06-22T11:45:10;174535.44;;;28.27;nan
9460;BME280;4768;42.664;23.240;2023-06-22T11:47:37;174443.88;;;27.93;nan
9460;BME280;4768;42.664;23.240;2023-06-22T11:50:07;174275.56;;;27.31;nan
9460;BME280;4768;42.664;23.240;2023-06-22T11:52:34;174036.00;;;26.43;nan
9460;BME280;4768;42.664;23.240;2023-06-22T11:55:02;173987.53;;;26.26;nan
9460;BME280;4768;42.664;23.240;2023-06-22T11:57:32;173999.69;;;26.30;nan
9460;BME280;4768;42.664;23.240;2023-06-22T11:59:59;174060.22;;;26.52;nan
9460;BME280;4768;42.664;23.240;2023-06-22T12:02:26;174142.25;;;26.82;nan
9460;BME280;4768;42.664;23.240;2023-06-22T12:04:52;174163.88;;;26.90;nan
9460;BME280;4768;42.664;23.240;2023-06-22T12:07:22;174018.50;;;26.37;nan
9460;BME280;4768;42.664;23.240;2023-06-22T12:09:49;173991.56;;;26.27;nan
9460;BME280;4768;42.664;23.240;2023-06-22T12:12:16;51304.31;;;26.10;nan
9460;BME280;4768;42.664;23.240;2023-06-22T12:14:43;-2789.88;;;25.51;nan
9460;BME280;4768;42.664;23.240;2023-06-22T12:17:09;6686.34;;;24.95;nan
9460;BME280;4768;42.664;23.240;2023-06-22T12:19:37;-1722.44;;;24.48;nan
9460;BME280;4768;42.664;23.240;2023-06-22T12:22:04;1432.50;;;24.12;nan
9460;BME280;4768;42.664;23.240;2023-06-22T12:26:58;-6950.66;;;23.78;nan
9460;BME280;4768;42.664;23.240;2023-06-22T12:29:25;-10085.50;;;23.54;nan
9460;BME280;4768;42.664;23.240;2023-06-22T12:31:52;-10063.16;;;22.77;nan
9460;BME280;4768;42.664;23.240;2023-06-22T12:34:19;-10029.72;;;21.61;nan
9460;BME280;4768;42.664;23.240;2023-06-22T12:36:45;-9999.28;;;20.56;nan
9460;BME280;4768;42.664;23.240;2023-06-22T12:39:13;-9976.56;;;19.77;nan
9460;BME280;4768;42.664;23.240;2023-06-22T12:41:41;-9959.28;;;19.17;nan
9460;BME280;4768;42.664;23.240;2023-06-22T12:44:08;-9946.16;;;18.72;nan
9460;BME280;4768;42.664;23.240;2023-06-22T12:46:36;-9940.59;;;18.52;nan
9460;BME280;4768;42.664;23.240;2023-06-22T12:49:03;-9942.59;;;18.59;nan
9460;BME280;4768;42.664;23.240;2023-06-22T12:51:30;-9943.72;;;18.63;nan
9460;BME280;4768;42.664;23.240;2023-06-22T12:53:57;-9948.16;;;18.79;nan
9460;BME280;4768;42.664;23.240;2023-06-22T12:56:24;-9949.28;;;18.83;nan
9460;BME280;4768;42.664;23.240;2023-06-22T13:01:19;-9959.16;;;19.17;nan
9460;BME280;4768;42.664;23.240;2023-06-22T13:03:45;-9964.00;;;19.34;nan
9460;BME280;4768;42.664;23.240;2023-06-22T13:06:12;-9968.41;;;19.49;nan
9460;BME280;4768;42.664;23.240;2023-06-22T13:08:39;-9971.28;;;19.59;nan
9460;BME280;4768;42.664;23.240;2023-06-22T13:11:06;-9973.72;;;19.67;nan
9460;BME280;4768;42.664;23.240;2023-06-22T13:13:32;-9978.41;;;19.84;nan
9460;BME280;4768;42.664;23.240;2023-06-22T13:16:01;-9978.41;;;19.84;nan
9460;BME280;4768;42.664;23.240;2023-06-22T13:18:28;-9980.56;;;19.91;nan
9460;BME280;4768;42.664;23.240;2023-06-22T13:20:55;-9982.13;;;19.96;nan
9460;BME280;4768;42.664;23.240;2023-06-22T13:23:23;-9986.41;;;20.11;nan
9460;BME280;4768;42.664;23.240;2023-06-22T13:25:50;-9994.28;;;20.38;nan
9460;BME280;4768;42.664;23.240;2023-06-22T13:28:17;-9991.69;;;20.30;nan
9460;BME280;4768;42.664;23.240;2023-06-22T13:30:44;-9991.69;;;20.30;nan
9460;BME280;4768;42.664;23.240;2023-06-22T13:33:14;-9994.28;;;20.38;nan
9460;BME280;4768;42.664;23.240;2023-06-22T13:35:40;-9998.41;;;20.53;nan
9460;BME280;4768;42.664;23.240;2023-06-22T13:38:08;-9996.28;;;20.45;nan
9460;BME280;4768;42.664;23.240;2023-06-22T13:40:35;-9997.41;;;20.49;nan
9460;BME280;4768;42.664;23.240;2023-06-22T13:43:03;-9992.84;;;20.34;nan
9460;BME280;4768;42.664;23.240;2023-06-22T13:45:29;-9993.13;;;20.35;nan
9460;BME280;4768;42.664;23.240;2023-06-22T13:47:56;-9994.00;;;20.38;nan
9460;BME280;4768;42.664;23.240;2023-06-22T13:50:24;-9991.84;;;20.30;nan
9460;BME280;4768;42.664;23.240;2023-06-22T13:52:51;-9993.13;;;20.35;nan
9460;BME280;4768;42.664;23.240;2023-06-22T13:55:18;-9995.28;;;20.42;nan
9460;BME280;4768;42.664;23.240;2023-06-22T14:00:13;-9994.69;;;20.40;nan
9460;BME280;4768;42.664;23.240;2023-06-22T14:02:40;-9992.97;;;20.34;nan
9460;BME280;4768;42.664;23.240;2023-06-22T14:05:07;-9992.28;;;20.32;nan
9460;BME280;4768;42.664;23.240;2023-06-22T14:07:36;-9992.69;;;20.33;nan
9460;BME280;4768;42.664;23.240;2023-06-22T14:10:03;-9992.41;;;20.32;nan